Time;durP1;ratioP1;P1;durP2;ratioP2;P2;SDS_P1;SDS_P2;PMS_P1;PMS_P2;Temp;Humidity;BMP_temperature;BMP_pressure;BME280_temperature;BME280_humidity;BME280_pressure;Samples;Min_cycle;Max_cycle;Signal;HPM_P1;HPM_P2
2022/06/18 00:01:34;;;;;;;3.83;3.30;;;;;;;21.57;57.81;99181.47;5029591;27;102836;-72
2022/06/18 00:04:03;;;;;;;3.42;3.13;;;;;;;21.59;57.21;99184.81;5021636;27;103696;-73
2022/06/18 00:06:34;;;;;;;4.60;3.60;;;;;;;21.53;58.16;99188.19;5025058;27;103249;-73
2022/06/18 00:09:03;;;;;;;3.65;3.35;;;;;;;21.44;58.56;99186.50;5029658;27;103189;-73
2022/06/18 00:14:17;;;;;;;4.45;4.05;;;;;;;21.09;60.63;99185.81;4989327;27;105767;-72
2022/06/18 00:16:45;;;;;;;4.55;4.15;;;;;;;21.05;60.51;99187.09;4994892;28;104582;-73
2022/06/18 00:19:13;;;;;;;4.70;4.30;;;;;;;20.95;61.21;99181.03;5021518;27;103235;-72
2022/06/18 00:21:42;;;;;;;4.50;3.70;;;;;;;20.81;61.64;99185.22;5030532;27;102890;-73
2022/06/18 00:24:17;;;;;;;4.30;3.90;;;;;;;20.65;61.99;99189.69;5010233;27;102897;-73
2022/06/18 00:26:45;;;;;;;4.10;3.70;;;;;;;20.66;62.06;99188.72;5016139;27;104272;-73
2022/06/18 00:29:15;;;;;;;4.47;4.07;;;;;;;20.68;61.71;99179.47;5012501;27;103398;-72
2022/06/18 00:31:45;;;;;;;4.13;3.73;;;;;;;20.69;61.57;99185.66;5006127;27;102682;-72
2022/06/18 00:34:13;;;;;;;4.45;3.63;;;;;;;20.60;61.64;99181.31;5028224;27;103996;-72
2022/06/18 00:36:43;;;;;;;6.10;4.07;;;;;;;20.28;62.63;99182.00;5004839;27;104241;-70
2022/06/18 00:39:13;;;;;;;4.33;3.33;;;;;;;20.53;61.89;99183.78;5031425;27;103221;-73
2022/06/18 00:41:44;;;;;;;3.30;3.00;;;;;;;20.79;60.31;99186.38;5025492;27;103292;-73
2022/06/18 00:44:23;;;;;;;4.38;3.78;;;;;;;20.88;60.70;99169.28;5012451;28;103913;-72
2022/06/18 00:47:05;;;;;;;3.90;3.50;;;;;;;20.89;61.04;99179.00;5016824;27;104862;-72
2022/06/18 00:49:40;;;;;;;4.05;3.65;;;;;;;20.74;61.56;99175.31;5000389;28;103227;-72
2022/06/18 00:52:16;;;;;;;4.20;3.80;;;;;;;20.46;61.99;99187.28;5004735;27;102856;-72
2022/06/18 00:54:47;;;;;;;4.38;3.67;;;;;;;20.39;62.58;99178.19;5028124;27;104333;-72
2022/06/18 00:57:19;;;;;;;5.35;3.60;;;;;;;20.40;62.48;99179.88;4996052;27;103284;-72
2022/06/18 00:59:53;;;;;;;4.18;3.78;;;;;;;20.21;62.78;99179.06;5015508;27;103254;-72
2022/06/18 01:02:33;;;;;;;4.18;3.78;;;;;;;19.76;64.74;99185.69;5011221;27;102668;-72
2022/06/18 01:05:01;;;;;;;3.95;3.58;;;;;;;19.78;64.83;99178.31;5028418;27;103525;-72
2022/06/18 01:07:33;;;;;;;3.40;3.10;;;;;;;20.02;64.03;99176.63;5010056;28;103760;-71
2022/06/18 01:10:05;;;;;;;3.80;3.30;;;;;;;19.96;64.52;99176.41;5020783;27;104285;-71
2022/06/18 01:12:36;;;;;;;3.13;2.83;;;;;;;20.18;63.62;99176.72;5013933;28;102751;-71
2022/06/18 01:15:07;;;;;;;2.80;2.60;;;;;;;20.45;61.38;99172.16;5011040;28;103904;-71
2022/06/18 01:17:42;;;;;;;4.70;3.80;;;;;;;20.15;63.19;99168.97;4995241;28;105340;-71
2022/06/18 01:20:12;;;;;;;4.32;3.38;;;;;;;19.99;64.19;99173.41;5021368;28;105884;-71
2022/06/18 01:22:52;;;;;;;3.78;3.40;;;;;;;19.98;64.22;99164.56;5019950;28;102704;-71
2022/06/18 01:25:22;;;;;;;3.72;3.40;;;;;;;19.86;64.42;99160.44;5010909;28;104132;-71
2022/06/18 01:27:53;;;;;;;4.25;3.85;;;;;;;19.82;64.86;99156.38;5005561;28;103267;-71
2022/06/18 01:30:33;;;;;;;4.93;3.63;;;;;;;19.69;65.08;99153.31;5025926;27;103372;-72
2022/06/18 01:33:06;;;;;;;4.00;3.60;;;;;;;19.79;64.75;99148.66;5004184;28;102637;-72
2022/06/18 01:35:38;;;;;;;3.80;3.33;;;;;;;19.89;64.22;99153.94;5023250;27;103842;-73
2022/06/18 01:38:14;;;;;;;3.92;3.53;;;;;;;19.73;64.13;99154.69;5013001;28;105378;-72
2022/06/18 01:40:51;;;;;;;2.90;2.70;;;;;;;19.76;64.14;99151.66;5001488;28;103637;-72
2022/06/18 01:43:21;;;;;;;3.30;3.03;;;;;;;19.85;64.29;99145.34;5012841;28;102788;-72
2022/06/18 01:45:56;;;;;;;3.23;3.00;;;;;;;19.96;63.23;99134.34;5011979;28;102650;-72
2022/06/18 01:48:34;;;;;;;3.27;2.73;;;;;;;20.23;62.52;99131.50;5027714;27;103799;-72
2022/06/18 01:51:11;;;;;;;2.63;2.42;;;;;;;20.34;61.87;99133.06;5008264;28;104923;-73
2022/06/18 01:53:44;;;;;;;4.20;3.75;;;;;;;20.23;62.57;99126.13;5022344;28;102696;-72
2022/06/18 01:56:18;;;;;;;3.50;3.20;;;;;;;20.29;62.73;99126.50;5021759;27;102838;-73
2022/06/18 01:58:52;;;;;;;3.30;3.00;;;;;;;20.44;61.71;99117.66;5026186;27;104013;-73
2022/06/18 02:01:38;;;;;;;3.47;3.17;;;;;;;20.56;61.33;99115.50;5007736;28;105693;-72
2022/06/18 02:04:06;;;;;;;4.90;4.18;;;;;;;20.51;62.10;99117.84;5034217;27;102656;-71
2022/06/18 02:06:38;;;;;;;4.20;3.80;;;;;;;20.36;62.48;99117.63;5021686;27;102743;-72
2022/06/18 02:09:12;;;;;;;3.95;3.55;;;;;;;20.30;62.03;99109.38;4996040;28;104173;-72
2022/06/18 02:11:42;;;;;;;4.70;3.97;;;;;;;20.26;61.51;99105.38;5000835;28;104550;-72
2022/06/18 02:14:15;;;;;;;3.65;3.35;;;;;;;20.37;61.25;99105.06;5013263;28;102841;-72
2022/06/18 02:16:46;;;;;;;4.68;3.30;;;;;;;20.22;62.22;99105.66;5015723;27;103593;-72
2022/06/18 02:19:17;;;;;;;3.58;3.28;;;;;;;20.21;61.74;99111.16;5008979;28;103882;-71
2022/06/18 02:21:49;;;;;;;3.20;2.90;;;;;;;20.19;62.03;99105.97;5016247;28;104360;-72
2022/06/18 02:24:17;;;;;;;6.40;3.28;;;;;;;20.27;61.24;99096.31;5010338;28;102595;-72
2022/06/18 02:26:48;;;;;;;3.67;2.80;;;;;;;20.15;61.64;99091.19;5011987;27;104942;-71
2022/06/18 02:29:20;;;;;;;3.10;2.80;;;;;;;20.22;61.50;99094.06;5033687;27;103993;-71
2022/06/18 02:31:48;;;;;;;3.00;2.60;;;;;;;20.30;61.01;99099.50;5009098;28;103199;-71
2022/06/18 02:34:19;;;;;;;2.87;2.67;;;;;;;20.37;60.69;99089.81;5018771;28;102827;-71
2022/06/18 02:36:48;;;;;;;3.23;2.90;;;;;;;20.41;60.40;99090.31;5004170;27;102727;-72
2022/06/18 02:39:26;;;;;;;2.95;2.75;;;;;;;20.39;60.54;99086.94;5000954;28;104406;-71
2022/06/18 02:42:00;;;;;;;2.90;2.60;;;;;;;20.27;60.95;99088.28;5001514;28;104347;-73
2022/06/18 02:44:29;;;;;;;2.78;2.58;;;;;;;20.26;60.78;99094.63;5004084;27;102877;-72
2022/06/18 02:47:00;;;;;;;3.70;2.60;;;;;;;20.34;60.19;99094.66;5013627;27;102754;-72
2022/06/18 02:49:28;;;;;;;2.85;2.65;;;;;;;20.33;60.08;99095.66;5008473;28;104529;-71
2022/06/18 02:51:56;;;;;;;2.90;2.70;;;;;;;20.25;60.49;99091.09;5021297;28;103194;-72
2022/06/18 02:54:24;;;;;;;2.70;2.50;;;;;;;20.28;60.77;99097.97;5009121;28;102812;-72
2022/06/18 02:56:53;;;;;;;2.83;2.53;;;;;;;20.24;60.44;99097.44;5015805;28;103971;-72
2022/06/18 02:59:25;;;;;;;3.20;2.90;;;;;;;20.12;60.94;99098.75;5014215;28;103973;-72
2022/06/18 03:01:53;;;;;;;3.00;2.65;;;;;;;20.12;60.72;99102.28;5020069;27;103192;-71
2022/06/18 03:04:20;;;;;;;3.13;2.70;;;;;;;20.05;61.19;99105.72;5011843;28;103005;-72
2022/06/18 03:06:54;;;;;;;3.00;2.70;;;;;;;20.13;60.72;99103.94;5002005;27;104132;-73
2022/06/18 03:09:26;;;;;;;2.92;2.55;;;;;;;19.84;61.77;99092.75;5001770;27;104316;-72
2022/06/18 03:14:43;;;;;;;3.28;2.88;;;;;;;19.83;61.75;99096.41;5003941;28;102833;-72
2022/06/18 03:17:11;;;;;;;3.13;2.30;;;;;;;20.03;60.97;99092.50;5012785;27;104085;-72
2022/06/18 03:19:46;;;;;;;3.45;2.80;;;;;;;20.06;61.20;99091.34;5026928;27;103269;-72
2022/06/18 03:22:18;;;;;;;2.67;2.47;;;;;;;20.14;60.74;99083.31;5004515;28;104208;-73
2022/06/18 03:24:46;;;;;;;2.60;2.17;;;;;;;20.24;60.17;99090.25;5023213;27;102648;-73
2022/06/18 03:27:17;;;;;;;2.50;2.30;;;;;;;20.27;60.18;99082.91;5014440;27;104348;-73
2022/06/18 03:29:52;;;;;;;2.30;2.10;;;;;;;20.33;59.86;99085.75;5035147;27;104192;-73
2022/06/18 03:32:21;;;;;;;2.30;2.10;;;;;;;20.34;60.10;99079.41;5013398;27;105159;-73
2022/06/18 03:34:49;;;;;;;2.50;2.30;;;;;;;20.32;60.09;99080.56;5011818;28;102668;-73
2022/06/18 03:37:18;;;;;;;3.10;2.60;;;;;;;20.35;60.01;99085.63;5011430;28;104186;-73
2022/06/18 03:39:47;;;;;;;2.50;2.30;;;;;;;20.33;60.48;99092.97;5001113;27;105246;-73
2022/06/18 03:42:15;;;;;;;2.80;2.53;;;;;;;20.32;60.57;99096.66;5014516;28;105435;-73
2022/06/18 03:44:45;;;;;;;2.80;2.10;;;;;;;20.27;60.33;99093.63;5010774;27;102786;-73
2022/06/18 03:47:15;;;;;;;2.85;2.65;;;;;;;20.15;61.11;99096.56;5018421;28;104297;-72
2022/06/18 03:49:43;;;;;;;2.40;2.20;;;;;;;20.25;60.96;99104.50;5002922;28;104197;-73
2022/06/18 03:52:13;;;;;;;2.67;2.47;;;;;;;20.24;60.74;99098.31;5012002;27;104665;-73
2022/06/18 03:54:42;;;;;;;2.72;2.50;;;;;;;20.14;61.05;99104.78;5005614;28;102742;-73
2022/06/18 03:57:17;;;;;;;4.00;2.50;;;;;;;20.09;61.69;99105.28;5013727;27;102725;-73
2022/06/18 03:59:47;;;;;;;2.53;2.33;;;;;;;20.11;61.99;99105.94;5006652;27;104008;-71
2022/06/18 04:02:17;;;;;;;2.60;2.40;;;;;;;20.18;61.61;99114.19;5003004;28;105182;-71
2022/06/18 04:04:48;;;;;;;2.40;2.20;;;;;;;20.18;61.34;99117.69;4988590;28;103109;-71
2022/06/18 04:07:22;;;;;;;2.30;2.10;;;;;;;20.19;61.43;99118.53;5006731;28;104205;-71
2022/06/18 04:10:22;;;;;;;3.05;2.40;;;;;;;20.15;61.59;99112.66;4997258;27;103756;-71
2022/06/18 04:12:51;;;;;;;2.72;2.13;;;;;;;20.30;61.67;99115.59;5008401;28;106131;-72
2022/06/18 04:15:31;;;;;;;2.40;2.20;;;;;;;20.28;61.89;99122.13;5013281;28;102667;-72
2022/06/18 04:18:10;;;;;;;2.38;2.10;;;;;;;20.34;61.59;99121.47;5001863;28;104295;-72
2022/06/18 04:20:39;;;;;;;2.90;2.20;;;;;;;20.45;60.86;99113.97;4981200;28;106018;-71
2022/06/18 04:23:11;;;;;;;3.30;2.83;;;;;;;20.00;62.89;99116.97;4998346;28;105739;-72
2022/06/18 04:25:43;;;;;;;3.38;2.70;;;;;;;20.11;62.25;99115.81;4999606;28;103016;-72
2022/06/18 04:28:12;;;;;;;2.50;2.20;;;;;;;20.38;61.44;99117.50;4991747;28;104033;-71
2022/06/18 04:30:43;;;;;;;2.58;2.38;;;;;;;20.45;61.71;99115.81;5000409;28;103926;-71
2022/06/18 04:33:19;;;;;;;3.38;2.72;;;;;;;19.86;63.90;99116.72;4997309;28;105264;-71
2022/06/18 04:35:58;;;;;;;4.30;2.88;;;;;;;19.54;64.52;99122.69;4989046;28;103527;-71
2022/06/18 04:38:27;;;;;;;2.47;2.28;;;;;;;20.10;63.03;99120.34;4997988;28;103758;-72
2022/06/18 04:41:22;;;;;;;2.50;2.27;;;;;;;20.54;62.94;99120.22;5014357;28;103974;-71
2022/06/18 04:44:00;;;;;;;2.58;2.38;;;;;;;20.68;62.21;99116.88;5004188;28;105440;-71
2022/06/18 04:46:30;;;;;;;3.40;2.40;;;;;;;20.81;62.61;99110.03;5002415;28;102859;-71
2022/06/18 04:48:59;;;;;;;2.50;2.30;;;;;;;20.93;60.80;99113.25;5021217;28;104253;-71
2022/06/18 04:51:29;;;;;;;2.28;2.08;;;;;;;21.06;60.15;99110.88;4991400;28;104401;-71
2022/06/18 04:53:58;;;;;;;3.38;2.45;;;;;;;21.19;61.05;99105.88;4998368;28;105065;-71
2022/06/18 04:56:26;;;;;;;2.60;2.40;;;;;;;21.20;61.95;99110.25;4998136;28;103391;-71
2022/06/18 04:58:54;;;;;;;4.10;3.20;;;;;;;21.13;63.85;99106.56;5004756;28;104077;-71
2022/06/18 05:01:29;;;;;;;6.43;3.57;;;;;;;20.96;66.03;99101.31;5003580;28;103372;-71
2022/06/18 05:04:16;;;;;;;2.60;2.40;;;;;;;21.01;63.10;99109.72;5018178;28;103106;-73
2022/06/18 05:07:05;;;;;;;2.80;2.53;;;;;;;21.21;61.30;99111.94;5019066;28;102906;-71
2022/06/18 05:09:48;;;;;;;3.10;2.80;;;;;;;21.18;60.91;99112.28;4997161;28;104132;-75
2022/06/18 05:12:34;;;;;;;3.40;2.60;;;;;;;21.44;60.51;99108.56;4999737;27;104376;-73
2022/06/18 05:15:18;;;;;;;2.38;2.20;;;;;;;21.54;60.93;99114.59;4978306;28;103215;-75
2022/06/18 05:17:47;;;;;;;2.30;2.10;;;;;;;21.66;60.19;99113.22;4998578;28;102812;-72
2022/06/18 05:20:19;;;;;;;2.40;2.20;;;;;;;21.70;59.55;99107.34;5013995;28;102678;-76
2022/06/18 05:22:51;;;;;;;3.00;2.70;;;;;;;21.66;59.96;99110.56;4987973;28;105063;-75
2022/06/18 05:25:20;;;;;;;2.73;2.53;;;;;;;21.70;59.39;99104.66;4988529;28;103158;-74
2022/06/18 05:27:48;;;;;;;2.67;2.47;;;;;;;21.84;58.82;99105.78;4993732;28;102654;-73
2022/06/18 05:30:28;;;;;;;3.22;2.92;;;;;;;21.92;59.19;99100.44;5000717;28;103750;-72
2022/06/18 05:33:00;;;;;;;3.10;2.80;;;;;;;22.10;58.99;99098.34;5013971;27;105304;-73
2022/06/18 05:35:32;;;;;;;2.78;2.58;;;;;;;22.18;58.95;99101.00;5001059;27;105051;-73
2022/06/18 05:38:02;;;;;;;4.10;2.80;;;;;;;22.32;58.39;99096.72;4997170;28;103036;-73
2022/06/18 05:40:30;;;;;;;3.45;3.00;;;;;;;22.31;58.41;99095.91;4992949;28;102679;-73
2022/06/18 05:42:58;;;;;;;3.35;2.72;;;;;;;22.31;58.26;99092.38;4991564;28;104206;-74
2022/06/18 05:45:26;;;;;;;2.63;2.42;;;;;;;22.47;57.31;99095.81;4994715;28;103406;-74
2022/06/18 05:47:54;;;;;;;2.67;2.47;;;;;;;22.51;57.04;99096.31;5000562;28;102762;-75
2022/06/18 05:50:22;;;;;;;3.22;2.50;;;;;;;22.60;56.62;99091.72;4998514;28;104513;-74
2022/06/18 05:52:51;;;;;;;3.42;3.13;;;;;;;22.35;56.48;99096.38;5004451;28;103014;-75
2022/06/18 05:55:44;;;;;;;2.60;2.40;;;;;;;22.63;55.78;99094.03;5022334;28;103125;-74
2022/06/18 05:58:29;;;;;;;2.40;2.20;;;;;;;22.79;55.15;99093.97;4989597;28;102997;-68
2022/06/18 06:01:08;;;;;;;3.17;2.75;;;;;;;22.71;55.09;99097.53;5000625;28;104017;-73
2022/06/18 06:03:36;;;;;;;2.90;2.60;;;;;;;22.84;54.90;99096.97;5017730;27;105340;-72
2022/06/18 06:06:06;;;;;;;2.65;2.45;;;;;;;22.95;54.23;99092.00;5024557;27;103328;-71
2022/06/18 06:08:39;;;;;;;3.20;2.90;;;;;;;22.90;53.90;99090.88;4984744;27;103288;-72
2022/06/18 06:13:58;;;;;;;4.43;2.60;;;;;;;22.68;54.16;99097.91;4995186;27;106042;-74
2022/06/18 06:16:27;;;;;;;2.63;2.42;;;;;;;22.76;54.11;99088.94;4992627;28;106616;-73
2022/06/18 06:19:00;;;;;;;2.50;2.30;;;;;;;23.12;53.66;99089.19;4995169;27;102765;-72
2022/06/18 06:21:28;;;;;;;3.20;2.90;;;;;;;23.42;52.86;99089.09;4997839;27;103670;-72
2022/06/18 06:23:57;;;;;;;3.53;2.67;;;;;;;23.55;53.06;99078.50;5026348;27;103917;-72
2022/06/18 06:26:32;;;;;;;3.13;2.40;;;;;;;23.66;53.09;99079.94;5016613;27;102927;-76
2022/06/18 06:29:00;;;;;;;2.92;2.55;;;;;;;23.83;52.90;99080.59;5018354;28;103134;-75
2022/06/18 06:31:28;;;;;;;3.00;2.80;;;;;;;23.63;53.29;99089.22;5009061;28;103884;-74
2022/06/18 06:33:56;;;;;;;3.00;2.70;;;;;;;23.92;52.83;99085.69;5018268;28;103707;-72
2022/06/18 06:36:24;;;;;;;3.30;3.00;;;;;;;23.76;53.12;99076.97;5018533;28;103082;-72
2022/06/18 06:38:55;;;;;;;3.55;2.90;;;;;;;23.71;53.07;99074.81;5010615;28;102723;-72
2022/06/18 06:41:27;;;;;;;3.20;2.90;;;;;;;23.92;53.52;99072.22;5019391;28;103892;-77
2022/06/18 06:43:55;;;;;;;4.00;2.83;;;;;;;24.07;52.75;99069.50;5019274;28;103764;-74
2022/06/18 06:46:30;;;;;;;4.53;3.00;;;;;;;24.00;52.40;99074.00;5004822;27;104366;-74
2022/06/18 06:48:58;;;;;;;4.30;3.05;;;;;;;24.19;52.60;99057.25;5015021;27;102778;-76
2022/06/18 06:51:28;;;;;;;3.35;3.00;;;;;;;24.45;52.05;99060.25;5016604;28;102669;-72
2022/06/18 06:53:56;;;;;;;3.53;3.07;;;;;;;24.54;52.42;99061.81;5016411;28;103376;-76
2022/06/18 06:59:14;;;;;;;2.90;2.70;;;;;;;25.09;51.88;99063.88;5005002;28;102711;-73
2022/06/18 07:01:42;;;;;;;2.55;2.35;;;;;;;25.32;50.43;99064.47;5001641;28;104202;-73
2022/06/18 07:04:12;;;;;;;3.37;3.03;;;;;;;25.33;50.31;99068.00;5006613;28;103554;-70
2022/06/18 07:06:40;;;;;;;2.58;2.30;;;;;;;25.62;49.61;99067.84;5022592;27;103411;-71
2022/06/18 07:09:10;;;;;;;3.58;3.00;;;;;;;25.70;50.26;99064.16;5026616;27;102774;-66
2022/06/18 07:14:22;;;;;;;4.10;3.67;;;;;;;25.75;49.54;99067.94;4936659;28;104077;-64
2022/06/18 07:16:50;;;;;;;4.22;3.38;;;;;;;26.02;49.96;99062.69;4936926;28;103359;-74
2022/06/18 07:19:20;;;;;;;4.38;2.90;;;;;;;26.35;49.22;99061.81;4953943;28;102751;-74
2022/06/18 07:21:51;;;;;;;3.95;3.15;;;;;;;26.50;49.01;99061.63;4959977;28;103586;-64
2022/06/18 07:24:20;;;;;;;3.72;3.08;;;;;;;26.34;48.83;99065.56;4943858;28;103124;-74
2022/06/18 07:26:48;;;;;;;3.25;2.88;;;;;;;26.76;47.77;99061.72;4954867;28;103208;-74
2022/06/18 07:29:20;;;;;;;3.73;3.00;;;;;;;26.91;47.57;99061.59;4963286;28;102817;-74
2022/06/18 07:31:52;;;;;;;2.80;2.50;;;;;;;27.19;47.48;99055.97;4962703;28;104095;-74
2022/06/18 07:34:20;;;;;;;3.20;2.90;;;;;;;27.10;48.13;99049.06;4959342;28;103314;-74
2022/06/18 07:36:48;;;;;;;3.73;2.90;;;;;;;26.94;48.10;99053.03;4960770;28;103195;-74
2022/06/18 07:39:15;;;;;;;3.50;3.08;;;;;;;27.11;46.98;99051.59;4945982;28;102666;-74
2022/06/18 07:41:48;;;;;;;2.88;2.67;;;;;;;27.70;46.39;99043.44;4954885;28;102928;-74
2022/06/18 07:44:16;;;;;;;2.67;2.47;;;;;;;28.30;45.70;99038.66;4967241;28;103939;-71
2022/06/18 07:46:45;;;;;;;3.23;2.93;;;;;;;27.84;45.85;99036.94;4946313;28;103309;-69
2022/06/18 07:49:15;;;;;;;3.13;2.60;;;;;;;27.92;46.04;99042.13;4959005;28;103015;-70
2022/06/18 07:51:44;;;;;;;2.57;2.10;;;;;;;29.00;44.17;99040.38;4960945;28;104331;-69
2022/06/18 07:54:14;;;;;;;2.05;1.90;;;;;;;29.58;42.38;99032.78;4945463;28;103339;-70
2022/06/18 07:56:42;;;;;;;2.17;1.98;;;;;;;29.99;41.58;99029.44;4954497;28;107289;-70
2022/06/18 07:59:10;;;;;;;4.00;2.40;;;;;;;30.13;42.28;99023.63;4962855;28;102645;-70
2022/06/18 08:01:41;;;;;;;2.50;2.30;;;;;;;30.32;40.45;99027.97;4963442;28;102671;-69
2022/06/18 08:04:09;;;;;;;2.83;2.30;;;;;;;30.51;40.18;99023.38;4963481;28;103286;-69
2022/06/18 08:06:38;;;;;;;2.33;2.13;;;;;;;30.87;39.46;99025.16;4955534;28;103201;-69
2022/06/18 08:09:06;;;;;;;2.28;2.10;;;;;;;31.14;37.45;99026.41;4961030;28;102702;-69
2022/06/18 08:11:37;;;;;;;1.97;1.87;;;;;;;31.49;37.58;99021.84;4960688;28;104272;-70
2022/06/18 08:14:06;;;;;;;2.50;2.30;;;;;;;31.24;38.50;99026.69;4960858;28;103342;-69
2022/06/18 08:16:34;;;;;;;2.13;1.92;;;;;;;32.07;38.46;99019.09;4960171;28;103269;-70
2022/06/18 08:19:03;;;;;;;3.60;2.30;;;;;;;32.20;37.27;99015.22;4937620;28;102948;-69
2022/06/18 08:21:35;;;;;;;2.35;2.13;;;;;;;32.64;35.91;99019.16;4959721;28;103022;-69
2022/06/18 08:24:08;;;;;;;2.30;2.10;;;;;;;32.31;36.35;99008.88;4955903;28;103306;-70
2022/06/18 08:26:37;;;;;;;3.78;2.22;;;;;;;32.12;34.37;99012.88;4961426;28;103453;-69
2022/06/18 08:29:07;;;;;;;2.28;1.90;;;;;;;32.62;35.44;99016.63;4962774;28;102690;-69
2022/06/18 08:31:36;;;;;;;2.40;1.90;;;;;;;33.48;35.13;99020.06;4953591;28;102919;-70
2022/06/18 08:34:04;;;;;;;2.25;2.05;;;;;;;33.57;33.36;99005.72;4960010;28;104319;-63
2022/06/18 08:36:34;;;;;;;3.53;2.00;;;;;;;34.08;32.90;99009.19;4944191;28;103268;-63
2022/06/18 08:39:03;;;;;;;2.13;1.92;;;;;;;34.52;32.42;99008.06;4960687;28;102893;-62
2022/06/18 08:41:50;;;;;;;2.05;1.85;;;;;;;35.01;32.70;98997.03;4960718;28;104245;-62
2022/06/18 08:44:40;;;;;;;3.58;2.28;;;;;;;34.12;31.52;98999.38;4951365;28;103293;-62
2022/06/18 08:47:18;;;;;;;3.90;2.20;;;;;;;31.90;36.03;98999.00;4960213;28;103167;-63
2022/06/18 08:50:06;;;;;;;2.17;1.98;;;;;;;34.10;32.73;98987.84;4950289;28;103212;-62
2022/06/18 08:53:02;;;;;;;4.15;2.00;;;;;;;33.95;31.36;98987.59;4951358;28;102767;-63
2022/06/18 08:55:41;;;;;;;2.88;1.98;;;;;;;33.24;32.06;98992.03;4956559;28;103048;-63
2022/06/18 08:58:19;;;;;;;2.60;1.92;;;;;;;34.55;30.12;98980.13;4962287;28;103207;-63
2022/06/18 09:00:55;;;;;;;2.42;2.00;;;;;;;34.15;29.94;98982.41;4959106;28;102842;-63
2022/06/18 09:03:33;;;;;;;1.80;1.70;;;;;;;34.64;30.57;98980.53;4961335;28;104070;-62
2022/06/18 09:06:13;;;;;;;1.60;1.50;;;;;;;36.00;30.80;98979.63;4946026;28;104117;-63
2022/06/18 09:08:53;;;;;;;1.77;1.67;;;;;;;35.98;29.55;98976.31;4940346;28;103232;-63
2022/06/18 09:11:41;;;;;;;2.33;1.50;;;;;;;36.34;29.10;98973.72;4942964;28;103083;-63
2022/06/18 09:14:14;;;;;;;2.45;2.00;;;;;;;35.25;28.30;98977.25;4953413;28;102682;-63
2022/06/18 09:16:48;;;;;;;2.90;1.67;;;;;;;34.97;28.94;98973.94;4955194;28;104048;-64
2022/06/18 09:19:20;;;;;;;2.20;2.00;;;;;;;35.29;30.00;98977.53;4958691;28;103408;-63
2022/06/18 09:21:53;;;;;;;3.90;1.90;;;;;;;33.77;29.40;98969.53;4958201;28;102819;-65
2022/06/18 09:24:26;;;;;;;1.58;1.42;;;;;;;34.62;30.42;98972.53;4960629;28;103816;-65
2022/06/18 09:27:00;;;;;;;1.73;1.60;;;;;;;34.58;29.43;98963.19;4954927;28;103899;-66
2022/06/18 09:29:36;;;;;;;2.80;1.63;;;;;;;36.07;29.57;98959.34;4958861;28;103181;-66
2022/06/18 09:32:18;;;;;;;1.70;1.50;;;;;;;37.01;29.08;98954.31;4951899;28;103167;-69
2022/06/18 09:34:53;;;;;;;1.85;1.70;;;;;;;36.94;28.74;98957.31;4944437;28;103896;-70
2022/06/18 09:37:27;;;;;;;1.65;1.55;;;;;;;37.35;27.57;98946.31;4947648;28;103287;-67
2022/06/18 09:39:59;;;;;;;1.65;1.55;;;;;;;35.24;29.79;98952.78;4953040;28;103217;-71
2022/06/18 09:42:35;;;;;;;1.90;1.38;;;;;;;37.07;28.12;98951.31;4955601;28;102660;-69
2022/06/18 09:45:10;;;;;;;1.50;1.40;;;;;;;37.59;27.21;98947.38;4943613;28;102820;-69
2022/06/18 09:47:41;;;;;;;2.53;1.42;;;;;;;37.35;25.26;98951.81;4956932;28;103685;-68
2022/06/18 09:50:19;;;;;;;1.85;1.40;;;;;;;35.50;26.02;98947.19;4961648;28;103216;-71
2022/06/18 09:52:53;;;;;;;3.80;1.40;;;;;;;35.51;25.90;98953.53;4958490;28;103019;-71
2022/06/18 09:55:26;;;;;;;2.30;1.40;;;;;;;37.09;26.57;98942.75;4943317;28;103024;-67
2022/06/18 09:57:57;;;;;;;1.40;1.30;;;;;;;37.05;25.64;98942.50;4953989;28;103962;-66
2022/06/18 10:00:31;;;;;;;1.48;1.30;;;;;;;37.63;25.10;98942.97;4972478;28;103201;-67
2022/06/18 10:03:04;;;;;;;1.65;1.55;;;;;;;36.69;25.57;98949.03;4961872;28;103365;-67
2022/06/18 10:08:35;;;;;;;3.00;1.23;;;;;;;38.39;25.67;98940.75;4971006;28;103535;-67
2022/06/18 10:11:10;;;;;;;2.53;1.70;;;;;;;38.04;26.64;98943.66;4957736;28;103241;-67
2022/06/18 10:13:43;;;;;;;1.42;1.33;;;;;;;38.43;25.60;98935.50;4961438;28;102969;-67
2022/06/18 10:16:22;;;;;;;2.63;1.40;;;;;;;38.44;27.18;98921.38;4961438;28;104184;-67
2022/06/18 10:19:01;;;;;;;2.17;1.43;;;;;;;38.64;25.73;98923.19;4976435;28;104085;-63
2022/06/18 10:21:39;;;;;;;3.90;1.60;;;;;;;38.01;23.73;98922.97;4957761;28;103373;-63
2022/06/18 10:24:14;;;;;;;4.30;1.70;;;;;;;35.91;26.26;98915.25;4958403;28;102958;-63
2022/06/18 10:26:49;;;;;;;2.35;1.40;;;;;;;37.10;26.15;98903.09;4960730;28;102741;-63
2022/06/18 10:29:29;;;;;;;2.60;1.50;;;;;;;36.81;24.88;98900.06;4951326;28;103334;-61
2022/06/18 10:32:18;;;;;;;1.45;1.30;;;;;;;38.15;25.85;98901.94;4960095;28;103222;-61
2022/06/18 10:35:06;;;;;;;2.55;1.73;;;;;;;36.90;23.56;98890.16;4958735;28;102692;-70
2022/06/18 10:37:46;;;;;;;2.92;1.42;;;;;;;36.34;24.56;98880.22;4947405;28;104337;-62
2022/06/18 10:40:34;;;;;;;2.00;1.52;;;;;;;37.52;25.46;98886.22;4971777;28;104429;-62
2022/06/18 10:43:20;;;;;;;1.48;1.38;;;;;;;36.91;24.11;98880.81;4970668;28;103295;-70
2022/06/18 10:45:56;;;;;;;1.40;1.30;;;;;;;37.44;25.14;98870.28;4958513;28;103412;-69
2022/06/18 10:48:27;;;;;;;3.50;1.35;;;;;;;36.32;24.53;98874.16;4971703;28;102771;-72
2022/06/18 10:51:01;;;;;;;3.93;1.50;;;;;;;34.69;25.24;98873.56;4948132;28;103285;-65
2022/06/18 10:53:30;;;;;;;1.27;1.15;;;;;;;36.90;24.23;98868.13;4945647;28;103314;-68
2022/06/18 10:56:01;;;;;;;4.28;1.42;;;;;;;37.74;23.31;98862.72;4956613;28;102665;-61
2022/06/18 10:58:29;;;;;;;3.22;1.40;;;;;;;37.22;24.94;98867.00;4972503;28;102884;-62
2022/06/18 11:01:00;;;;;;;1.40;1.10;;;;;;;38.03;23.74;98860.13;4950779;28;103307;-62
2022/06/18 11:03:31;;;;;;;1.50;1.30;;;;;;;36.57;23.86;98864.03;4951553;28;103374;-62
2022/06/18 11:06:03;;;;;;;2.30;1.38;;;;;;;37.00;24.98;98857.13;4948830;28;103065;-64
2022/06/18 11:08:34;;;;;;;1.42;1.30;;;;;;;38.26;23.08;98859.41;4974986;28;104440;-71
2022/06/18 11:11:05;;;;;;;2.97;1.63;;;;;;;36.89;23.00;98849.13;4958866;28;103263;-74
2022/06/18 11:13:36;;;;;;;4.00;1.60;;;;;;;36.30;23.60;98840.59;4972717;28;103188;-73
2022/06/18 11:16:15;;;;;;;2.00;1.60;;;;;;;37.64;23.67;98843.47;4960418;28;102741;-71
2022/06/18 11:18:48;;;;;;;2.38;1.58;;;;;;;38.08;23.27;98846.28;4959468;28;102853;-72
2022/06/18 11:21:24;;;;;;;3.10;1.70;;;;;;;38.30;22.93;98845.88;4957452;28;104162;-71
2022/06/18 11:23:56;;;;;;;1.65;1.25;;;;;;;37.48;23.19;98849.31;4964457;28;103336;-71
2022/06/18 11:26:41;;;;;;;2.70;1.60;;;;;;;37.06;23.71;98834.00;4959647;28;103039;-71
2022/06/18 11:29:18;;;;;;;3.03;1.57;;;;;;;38.37;23.39;98838.13;4958599;28;102811;-71
2022/06/18 11:31:49;;;;;;;1.75;1.52;;;;;;;38.91;23.40;98842.66;4952987;28;104263;-71
2022/06/18 11:34:24;;;;;;;5.78;1.90;;;;;;;37.82;24.57;98833.72;4948800;28;103013;-72
2022/06/18 11:36:54;;;;;;;2.70;1.70;;;;;;;38.62;24.67;98823.28;4950363;28;102808;-63
2022/06/18 11:39:35;;;;;;;4.55;1.48;;;;;;;38.26;24.19;98820.78;4942951;28;102962;-62
2022/06/18 11:42:11;;;;;;;2.85;1.52;;;;;;;35.78;25.64;98819.59;4972714;28;104209;-67
2022/06/18 11:44:45;;;;;;;4.28;2.45;;;;;;;37.77;24.41;98822.72;4972739;28;103189;-63
2022/06/18 11:47:19;;;;;;;2.22;1.63;;;;;;;38.90;23.46;98816.16;4960171;28;102713;-64
2022/06/18 11:49:58;;;;;;;3.47;2.10;;;;;;;38.77;24.03;98814.88;4958573;28;102797;-63
2022/06/18 11:52:34;;;;;;;2.27;1.63;;;;;;;38.84;24.01;98799.63;4956062;28;104612;-62
2022/06/18 11:55:16;;;;;;;3.13;1.83;;;;;;;38.84;24.11;98794.13;4956751;28;103275;-65
2022/06/18 11:57:48;;;;;;;3.25;1.63;;;;;;;36.75;25.27;98798.50;4958889;28;102735;-72
2022/06/18 12:00:33;;;;;;;4.95;1.70;;;;;;;37.61;25.21;98791.69;4955309;28;104214;-72
2022/06/18 12:03:15;;;;;;;4.25;1.83;;;;;;;37.38;24.43;98797.00;4940866;28;104792;-73
2022/06/18 12:05:57;;;;;;;3.60;1.88;;;;;;;38.08;23.89;98785.63;4956568;28;103447;-75
2022/06/18 12:08:26;;;;;;;4.93;2.05;;;;;;;37.24;26.75;98796.78;4955723;28;102770;-75